Terminal Aerodrome Forecast
Issued by NWS

Home | Current Version | Previous Version | Text Only | Print | Product List | Glossary On
Versions: 1 2 3 4 5 6 7 8 9 10 11 12 13 14 15 16 17 18 19 20 21 22 23 24 25
023
FTUS44 KLZK 171134
TAFLLQ
TAF
KLLQ 171134Z 1712/1812 29006KT P6SM VCSH SCT025 OVC050
      TEMPO 1712/1715 6SM -RA OVC015
     FM172100 29006KT P6SM VCSH BKN050 OVC100
     FM180200 29005KT P6SM -RA VCSH BKN025 OVC050=

USA.gov is the U.S. government's official web portal to all federal, state and local government web resources and services.